Oleh Vanat

Chief Scout - Zorya
20 Feb 2028
Sunday
Process

Personality

Adaptability (12) Ambition (10) Controversy (11) Loyalty (10) Pressure (2) Professionalism (4) Sportsmanship (11) Temperament (3)

Profile

Coaching Style Democratic
License Continental A
Determination 9
Man Management 8
Motivating 6
Discipline 5
Job Satisfaction
100%
Fatigue
0%
Role Chief Scout
Wage 59.6K p/w
Contract 14.03.2030

Performance

Behaviour Good
Training Effectiveness
46%
Player Development
20%
Injury Prevention
35%
Tactical Implementation
65%

Recent Events

Attended a recruitment meeting now
Attended a recruitment meeting now
Recommended a transfer target now
Attended a recruitment meeting 7d ago
Attended a recruitment meeting 7d ago
Recommended a transfer target 7d ago
Recommended a transfer target 7d ago
Attended a recruitment meeting 7d ago

Currently Monitoring

170
Player Club Status Ability Confidence Watched Last Observed Latest Vote
Ayden Heaven Luton Town Active 133 / 147 40% 4 07.02.2028 -
Abubakar Adams Aduana Stars Active 81 / 94 40% 1 07.02.2028 -
Mauro Carrizo Atlético Tucumán Active 98 / 105 40% 6 25.01.2028 -
Mao Hosoya Everton Negotiating 134 / 135 67% 1 25.01.2028 Approve
Callum O'Hare Sheffield United Active 146 / 132 40% 2 24.01.2028 -
Ronan Kpakio Cardiff City Active 142 / 131 40% 3 23.01.2028 -
Izan Merino Málaga Active 132 / 135 40% 1 23.01.2028 -
Mikkel Hope Haugesund Active 95 / 105 40% 4 21.01.2028 -
Lucas Camejo River Plate Active 80 / 87 40% 6 21.01.2028 -
Matías Canedo Rampla Juniors Active 80 / 92 40% 2 19.01.2028 -
Giovanni Leoni Bradford City Active 157 / 147 40% 3 17.01.2028 -
Narcis Ilaş CFR Cluj Active 108 / 120 40% 2 15.01.2028 -
Josh Nichols Tranmere Rovers Active 133 / 127 40% 1 15.01.2028 -
Alejandro Almaraz Nueva Chicago Active 106 / 113 40% 3 13.01.2028 -
Fillip Jenssen Riise Stabaek Active 85 / 108 40% 1 13.01.2028 -
Jofre Torrents Ajax Active 128 / 134 40% 1 12.01.2028 -
Caleb Yirenkyi Coventry City Active 141 / 146 40% 3 07.01.2028 -
José Correa Deportivo Tachira Active 103 / 97 40% 2 07.01.2028 -
Jair Collahuazo Kudrivka Active 99 / 107 40% 2 06.01.2028 -
Olivier Mambwa Young Boys Active 125 / 121 40% 1 06.01.2028 Needs More Info
David Valencia Alianza Petrolera Active 126 / 131 40% 2 05.01.2028 -
Óscar Hinojosa Metropolitanos Active 72 / 84 40% 4 04.01.2028 -
Tyson Pearce St. Louis CITY SC Active 113 / 103 40% 2 03.01.2028 -
Junior Machis Atletico Venezuela Active 84 / 82 40% 2 30.12.2027 -
David Asayure Lokomotivi Active 71 / 83 40% 1 26.12.2027 -
Joel Ezra Enyimba Active 89 / 104 40% 6 25.12.2027 -
David Damboama El-Kanemi Warriors Active 76 / 91 40% 6 23.12.2027 -
Juan Camilo Córdoba Deportivo Pereira Active 95 / 95 40% 4 22.12.2027 -
Mohammed Habib Sarwari Kariobangi Sharks Active 90 / 78 40% 5 20.12.2027 -
Olaniyi Saheed Kwara United Active 91 / 103 40% 3 19.12.2027 -
Tiago Gordillo San Miguel Active 89 / 93 40% 3 09.12.2027 -
Esquerdinha Shrewsbury Town Active 129 / 123 40% 1 09.12.2027 -
Maksym Danyliuk HIFK Active 66 / 76 40% 1 06.12.2027 -
Aleko Basiladze Slovan Liberec Active 102 / 116 40% 1 06.12.2027 -
Eduardo Felicíssimo Sporting CP Active 121 / 127 40% 1 05.12.2027 -
Jovan Milosavljević Kalmar FF Active 92 / 106 40% 2 26.11.2027 -
Hosea Michael Remo Stars Active 89 / 89 40% 1 25.11.2027 -
Christos Mouzakitis Hull City Active 149 / 149 40% 3 24.11.2027 -
Daniel Banjaqui Benfica Active 116 / 129 40% 1 24.11.2027 -
Godwin Oham Warri Wolves Active 82 / 88 40% 4 14.11.2027 -
Samuel Posada Leones Active 94 / 89 40% 2 12.11.2027 -
Ignacio Fernández Boston River Active 79 / 99 40% 1 12.11.2027 -
Onuorah Onyedika Kun Khalifat Active 86 / 89 40% 2 07.11.2027 -
Juan Morán Godoy Cruz Active 121 / 116 40% 2 05.11.2027 -
Ricky Atletico Venezuela Active 89 / 99 40% 1 01.11.2027 -
Malick Yalcouyé Brighton Active 116 / 130 40% 1 28.10.2027 -
Alexandr Voronovich Shukura Active 78 / 83 40% 1 23.10.2027 -
Esteban de Lima Tacuarembo Active 80 / 95 40% 1 21.10.2027 -
Somtochuwku Ezenabo Kwara United Active 79 / 99 40% 1 14.10.2027 -
Hervin Goyes Deportivo Pasto Active 93 / 113 40% 1 14.10.2027 -
Celías Ingenthron Vélez Active 108 / 124 40% 1 12.10.2027 -
Issa Yusuf Shooting Stars Active 93 / 95 40% 1 10.10.2027 -
Chibueze Oputa Rangers International Active 80 / 93 40% 1 04.10.2027 -
Gift Udoh Ikorodu City Active 95 / 96 40% 1 04.10.2027 -
Santiago Sala Güemes Active 105 / 109 40% 1 06.09.2027 -
Ivo Costantino Rentistas Active 125 / 110 40% 1 06.09.2027 -
Vikentiy Voloshyn Livyi Bereh Active 102 / 95 48% 1 23.08.2027 -
Latrell Aken Groningen Active 121 / 119 40% 1 09.08.2027 -
Sascha Britschgi Padova Active 123 / 128 40% 1 09.08.2027 -
Martim Cunha Porto Active 93 / 110 40% 2 02.08.2027 -
Kazunari Kita Real Sociedad Active 89 / 106 40% 1 02.08.2027 -
Juan Mosquera Sheffield Wednesday Active 149 / 131 40% 1 19.07.2027 -
Ali Ahmed Norwich City Active 119 / 133 40% 1 19.07.2027 -
Finley McAllister Grimsby Town Active 109 / 94 40% 1 13.07.2027 -
Tiago Freitas Benfica Active 124 / 123 40% 1 28.06.2027 -
Pedro de la Vega FC Dallas Active 133 / 134 66% 1 14.06.2027 Approve
Ronald Swansea City Active 125 / 124 40% 1 13.06.2027 -
Igor Burnley Active 157 / 139 40% 1 13.06.2027 -
Callum Lang Preston Active 117 / 116 40% 2 12.06.2027 -
Ilyas Ansah Hull City Active 128 / 130 40% 2 12.06.2027 -
Oleksii Hutsuliak Polissia Active 133 / 124 40% 5 11.06.2027 -
Elijah Adebayo Luton Town Active 142 / 124 40% 4 10.06.2027 -
Giuseppe Di Serio Spezia Active 139 / 119 40% 1 10.06.2027 -
Lamine Guèye Barrow AFC Active 118 / 110 40% 1 03.06.2027 -
Lewis Morgan SuperSport United Active 110 / 121 40% 8 01.06.2027 -
Oli McBurnie Hull City Active 148 / 136 40% 3 01.06.2027 -
Ross Stewart Southampton Active 128 / 123 40% 2 31.05.2027 -
Aune Heggebø West Bromwich Albion Active 135 / 126 40% 4 31.05.2027 -
Mathias Jørgensen Blackburn Rovers Active 114 / 114 40% 2 27.05.2027 -
Aaron Collins Milton Keynes Dons Active 111 / 110 40% 3 25.05.2027 -
John Yeboah Venezia Active 130 / 123 40% 1 25.05.2027 -
Dom Ballard Leyton Orient Active 138 / 121 40% 5 23.05.2027 -
Dany Mota Monza Active 123 / 136 40% 1 22.05.2027 -
Bojan Radulović Huddersfield Town Active 135 / 121 40% 1 20.05.2027 -
Tom Cannon Sheffield United Active 141 / 123 40% 2 13.05.2027 -
Lorent Tolaj Plymouth Argyle Active 111 / 118 40% 3 12.05.2027 -
Zian Flemming Ipswich Town Active 145 / 131 40% 2 12.05.2027 -
Will Lankshear Middlesbrough Active 108 / 129 40% 3 09.05.2027 -
Victor Torp Coventry City Active 143 / 127 40% 1 09.05.2027 -
Zeki Amdouni Burnley Active 148 / 132 40% 1 07.05.2027 -
Moussa Dembélé CR Belouizdad Active 118 / 133 40% 1 05.05.2027 -
Rhian Brewster Oxford United Active 140 / 127 40% 2 04.05.2027 -
Marco Tumminello Benevento Active 131 / 107 40% 1 04.05.2027 -
Richard Koné Queens Park Rangers Active 143 / 130 40% 1 01.05.2027 -
Luis Vázquez Birmingham Active 151 / 128 40% 1 01.05.2027 -
Themba Ngcobo SuperSport United Active 118 / 113 40% 2 26.04.2027 -
Kyle Wootton Stockport County Active 132 / 118 40% 1 21.04.2027 -
Karlan Grant West Bromwich Albion Active 106 / 121 40% 1 20.04.2027 -
Patson Daka Leicester City Active 117 / 124 40% 1 19.04.2027 -
Ettore Gliozzi Mantova Active 104 / 111 40% 1 19.04.2027 -
Tyrese Campbell Sheffield United Active 145 / 122 40% 1 17.04.2027 -
Tyreece Campbell Charlton Athletic Active 122 / 124 40% 1 15.04.2027 -
Mattia Bortolussi Padova Active 119 / 125 40% 1 13.04.2027 -
Sam Bell Bristol City Active 102 / 115 40% 1 05.04.2027 -
Lorenzo De Leo Renate Active 106 / 99 40% 1 22.02.2027 -
Filippo Ranocchia Palermo Active 131 / 129 40% 1 16.02.2027 -
Jean Pedroso Karpaty Active 104 / 111 44% 2 01.02.2027 -
Kai Cipot Veres Active 109 / 105 40% 1 01.02.2027 -
Oleksandr Drambaiev LNZ Active 120 / 116 40% 3 28.01.2027 Monitor
Serhiy Buletsa Oleksandriya Active 102 / 107 40% 3 24.01.2027 -
Yurii Klymchuk Kolos Active 103 / 113 40% 2 21.01.2027 -
Maksym Tretiakov Obolon Active 112 / 108 40% 2 21.01.2027 -
Nduduzo Sibiya Golden Arrows Active 110 / 111 40% 1 20.01.2027 -
Reda Khadra Qarabag Active 116 / 125 40% 4 19.01.2027 -
José Martínes CSKA 1948 Active 112 / 108 40% 2 16.01.2027 -
Tshepang Moremi Orlando Pirates Active 96 / 121 40% 2 13.01.2027 -
Bohdan Liedniev APOEL Active 97 / 111 40% 2 11.01.2027 -
Rafael Profini Metalist Active 123 / 123 40% 1 11.01.2027 -
Ruben van Bommel Ferencvaros Active 138 / 135 40% 1 11.01.2027 -
Baton Zabërgja Kolos Active 107 / 110 40% 3 10.01.2027 -
Mduduzi Shabalala Kaizer Chiefs Active 109 / 115 40% 5 06.01.2027 -
Moha Karpaty Active 118 / 114 40% 1 06.01.2027 -
Filip Kaloč Ludogorets Active 135 / 123 40% 1 05.01.2027 Needs More Info
Nazar Voloshyn Dynamo Kyiv Active 122 / 124 40% 3 30.12.2026 -
Oleksandr Pikhalionok Dynamo Kyiv Active 129 / 122 40% 3 28.12.2026 -
Jordan Lotomba Bloemfontein Celtic Active 110 / 132 40% 3 27.12.2026 -
Tedi Cara LNZ Active 106 / 118 40% 1 26.12.2026 -
Oleksandr Tymchyk Dynamo Kyiv Active 132 / 127 40% 4 24.12.2026 -
Suleiman Camara Slovan Bratislava Active 108 / 123 40% 1 23.12.2026 -
Prosper Obah Shakhtar Active 129 / 119 40% 1 21.12.2026 -
Muharrem Jashari LNZ Active 130 / 110 40% 1 18.12.2026 -
Petar Stanić Ludogorets Active 124 / 138 40% 3 13.12.2026 Monitor
Adilson Córdoba Active 127 / 121 40% 1 11.12.2026 -
Aarón Molinas Defensa y Justicia Active 128 / 131 40% 1 10.12.2026 -
Mandla Erasmus SuperSport United Active 103 / 126 40% 3 08.12.2026 Monitor
Róbert Polievka MTK Budapest Active 116 / 109 40% 1 08.12.2026 -
Yehor Tverdokhlib LNZ Active 121 / 115 40% 1 06.12.2026 -
Aidomo Emakhu Oxford United Active 126 / 116 40% 1 06.12.2026 -
Xeber Alkain Karpaty Active 121 / 114 40% 3 04.12.2026 -
Arinaldo Rrapaj Kolos Active 123 / 114 40% 1 04.12.2026 -
Oswin Appollis Orlando Pirates Active 108 / 128 40% 2 02.12.2026 -
Breel Embolo Atlanta United FC Active 125 / 147 40% 4 30.11.2026 -
Mykola Shaparenko Dynamo Kyiv Active 130 / 134 40% 1 29.11.2026 -
Nicolás Arévalo Metalist Active 122 / 114 40% 1 28.11.2026 -
Ivan Kaliuzhnyi Metalist Active 114 / 118 40% 1 24.11.2026 -
Pedro Henrique Shakhtar Active 118 / 138 40% 2 22.11.2026 -
Williams Manyama SuperSport United Active 133 / 123 40% 2 20.11.2026 -
Velemseni Ndwandwe Golden Arrows Active 93 / 97 40% 2 18.11.2026 -
Denys Antiukh Metalist Active 99 / 102 40% 1 12.11.2026 -
Tobias Gulliksen Rapid Wien Active 106 / 126 40% 1 07.11.2026 -
Trai Hume Sunderland Active 137 / 140 40% 1 02.11.2026 -
Caolan Boyd-Munce Wycombe Wanderers Active 105 / 116 40% 1 02.11.2026 -
Romano Schmid Frosinone Active 122 / 144 40% 1 31.10.2026 -
Dmytro Kryskiv Shakhtar Active 130 / 121 40% 1 31.10.2026 -
Pedrinho Shakhtar Active 130 / 130 40% 2 30.10.2026 -
Volodymyr Brazhko Dynamo Kyiv Active 117 / 135 40% 1 22.10.2026 -
Jonathan Levi Ferencvaros Active 113 / 121 40% 1 18.10.2026 -
Patrick Berg Bodo/Glimt Active 120 / 131 40% 1 18.10.2026 -
Luka Kurtovic NK Domzale Active 134 / 123 40% 1 16.10.2026 -
Gabriel Jesus Barcelona Active 143 / 161 40% 4 15.10.2026 -
Donis Avdijaj Wolfsberger AC Active 115 / 122 40% 1 11.10.2026 -
Ihor Krasnopir Polissia Active 102 / 119 40% 1 10.10.2026 -
Daniel Karlsbakk Sarpsborg 08 Active 106 / 120 40% 1 08.10.2026 -
Vladyslav Dubinchak Dynamo Kyiv Active 111 / 124 40% 1 07.10.2026 -
Luka Stankovski Kolos Active 102 / 109 40% 1 14.09.2026 -
Braian Ojeda Orlando City Active 119 / 123 40% 1 31.08.2026 -
Jack Harrison New England Revolution Active 125 / 117 40% 1 24.08.2026 -
Sergio Reguilón Inter Miami CF Active 121 / 144 40% 1 24.08.2026 -
Iván Angulo Orlando City Active 142 / 124 40% 1 18.08.2026 -
Paul Arriola Seattle Sounders Active 123 / 127 40% 1 18.08.2026 -